Portada
METAR-TAF:

METAR-TAF

Aeroports :

Maceió, Alagoas, Brasil

latitud: 09-31S, longitud: 035-47W, altitud: 117 m

Observació

L'informe es va fer fa 54 minuts, a les 22:00 UTC
Vent 5 kt del Sud-Est
Temperatura 24°C
Humitat 83%
Pressió 1017 hPa
Visibilitat 10 km o més
Escasses núvols a una alçada de 3000 ft
Cel ennuvolat a una alçada de 7000 ft

METAR: SBMO 232200Z 14005KT 9999 FEW030 BKN070 24/21 Q1017

Hora: 19:54 (22:54 UTC)

Pronòstic

L'informe es va fer fa 6 hores i 54 minuts, a les 16:00 UTC
Pronòstic vàlid del 23 a les 18 UTC al 24 a les 06 UTC
Vent 10 kt del Sud-Est
Visibilitat: 8000 m
Núvols disperses a una alçada de 1800 ft
Probabilitat 30% :
Temporalment
l' 24 a les 04 UTC al 24 a les 06 UTC
Visibilitat: 4000 m
Cel ennuvolat a una alçada de 1000 ft
boirina

TAF: SBMO 231600Z 2318/2406 14010KT 8000 SCT018 TX27/2318Z TN23/2405Z PROB30 TEMPO 2404/2406 4000 BR BKN010 RMK PEU

Observacions i pronòstics meteorològics de més de 4000 aeroports (METAR i TAF).

Les estacions disponibles són els punts grocs i vermells al mapa.

Posi el ratolí al punt desitjat per veure el nom de l'estació.

Feu clic per veure les observacions i els pronòstics meteorològics.

Per canviar el mapa: feu clic els botons verds amb una creu de color negre per apropar; al botó verd amb un guió per allunyar la imatge; o en les fletxes verdes per a mapes adjacents.


METAR-TAF: